createdAt,value
2022-12-22T00:02:00.828Z,82.08
2022-12-22T00:04:47.698Z,81.46
2022-12-22T00:07:33.075Z,81.81
2022-12-22T00:10:18.647Z,81.99
2022-12-22T00:13:04.150Z,82.17
2022-12-22T00:15:53.347Z,81.63
2022-12-22T00:18:39.655Z,81.10
2022-12-22T00:21:29.726Z,81.42
2022-12-22T00:24:15.879Z,81.05
2022-12-22T00:27:01.360Z,81.13
2022-12-22T00:29:55.717Z,81.47
2022-12-22T00:32:42.944Z,80.85
2022-12-22T00:35:32.880Z,81.44
2022-12-22T00:38:19.479Z,80.80
2022-12-22T00:41:04.871Z,80.65
2022-12-22T00:43:50.314Z,80.96
2022-12-22T00:46:37.571Z,80.26
2022-12-22T00:49:22.847Z,80.94
2022-12-22T00:52:08.274Z,79.76
2022-12-22T00:54:54.756Z,80.22
2022-12-22T00:57:44.787Z,80.23
2022-12-22T01:00:35.481Z,80.44
2022-12-22T01:03:22.533Z,79.68
2022-12-22T01:06:08.230Z,79.84
2022-12-22T01:08:54.455Z,79.00
2022-12-22T01:11:41.705Z,78.56
2022-12-22T01:14:30.608Z,78.92
2022-12-22T01:17:16.022Z,79.14
2022-12-22T01:20:01.886Z,80.14
2022-12-22T01:22:48.151Z,79.96
2022-12-22T01:25:37.899Z,78.75
2022-12-22T01:28:24.722Z,77.82
2022-12-22T01:31:09.967Z,79.37
2022-12-22T01:33:55.339Z,79.80
2022-12-22T01:36:40.702Z,79.91
2022-12-22T01:39:27.340Z,78.87
2022-12-22T01:42:12.938Z,78.67
2022-12-22T01:44:59.738Z,79.46
2022-12-22T01:47:52.634Z,79.45
2022-12-22T01:50:50.256Z,80.19
2022-12-22T01:53:42.615Z,79.44
2022-12-22T01:56:29.558Z,78.68
2022-12-22T01:59:19.560Z,79.18
2022-12-22T02:02:06.422Z,78.88
2022-12-22T02:04:58.527Z,79.68
2022-12-22T02:08:10.671Z,80.04
2022-12-22T02:11:21.205Z,79.29
2022-12-22T02:14:29.686Z,80.72
2022-12-22T02:17:29.189Z,80.59
2022-12-22T02:20:53.113Z,79.52
2022-12-22T02:24:00.577Z,78.50
2022-12-22T02:26:52.344Z,79.85
2022-12-22T02:29:45.951Z,80.11
2022-12-22T02:32:31.774Z,79.79
2022-12-22T02:35:17.135Z,80.33
2022-12-22T02:38:17.715Z,79.61
2022-12-22T02:41:17.757Z,78.84
2022-12-22T02:44:34.979Z,78.67
2022-12-22T02:47:31.926Z,79.91
2022-12-22T02:50:27.821Z,79.52
2022-12-22T02:53:14.685Z,79.61
2022-12-22T02:55:59.829Z,78.31
2022-12-22T02:58:45.188Z,79.10
2022-12-22T03:01:31.695Z,79.39
2022-12-22T03:04:16.906Z,79.49
2022-12-22T03:07:02.170Z,78.41
2022-12-22T03:09:47.371Z,78.70
2022-12-22T03:12:33.296Z,79.64
2022-12-22T03:15:19.167Z,80.37
2022-12-22T03:18:06.026Z,80.07
2022-12-22T03:20:51.464Z,80.36
2022-12-22T03:23:36.610Z,79.62
2022-12-22T03:26:04.400Z,80.75
2022-12-22T03:28:32.176Z,79.91
2022-12-22T03:31:03.808Z,79.74
2022-12-22T03:33:34.825Z,80.05
2022-12-22T03:36:02.963Z,79.92
2022-12-22T03:38:31.312Z,80.70
2022-12-22T03:40:59.080Z,80.34
2022-12-22T03:43:44.761Z,80.31
2022-12-22T03:46:33.803Z,79.10
2022-12-22T03:49:11.140Z,80.92
2022-12-22T03:51:42.846Z,80.86
2022-12-22T03:54:13.250Z,81.86
2022-12-22T03:56:42.098Z,82.01
2022-12-22T03:59:11.041Z,81.92
2022-12-22T04:01:42.865Z,80.41
2022-12-22T04:04:14.202Z,80.65
2022-12-22T04:06:42.428Z,80.58
2022-12-22T04:09:10.757Z,80.91
2022-12-22T04:11:56.130Z,80.76
2022-12-22T04:14:29.792Z,79.34
2022-12-22T04:17:01.835Z,79.57
2022-12-22T04:19:31.008Z,80.03
2022-12-22T04:21:58.796Z,80.83
2022-12-22T04:24:26.950Z,79.79
2022-12-22T04:26:54.907Z,80.83
2022-12-22T04:29:22.662Z,80.76
2022-12-22T04:31:50.550Z,80.14
2022-12-22T04:34:18.378Z,79.20
2022-12-22T04:36:47.502Z,79.20
2022-12-22T04:39:15.341Z,80.19
2022-12-22T04:41:43.075Z,80.34
2022-12-22T04:44:10.812Z,80.01
2022-12-22T04:46:38.576Z,78.79
2022-12-22T04:49:06.690Z,78.00
2022-12-22T04:51:34.580Z,78.34
2022-12-22T04:54:03.710Z,79.67
2022-12-22T04:56:31.702Z,78.31
2022-12-22T04:58:59.717Z,80.01
2022-12-22T05:01:27.720Z,79.43
2022-12-22T05:03:55.673Z,79.06
2022-12-22T05:06:23.445Z,81.08
2022-12-22T05:08:51.279Z,81.21
2022-12-22T05:11:20.570Z,80.20
2022-12-22T05:13:48.317Z,79.21
2022-12-22T05:16:18.236Z,78.32
2022-12-22T05:18:47.267Z,77.46
2022-12-22T05:21:17.793Z,77.60
2022-12-22T05:23:46.607Z,77.22
2022-12-22T05:26:16.256Z,77.48
2022-12-22T05:28:47.843Z,76.98
2022-12-22T05:31:20.007Z,76.72
2022-12-22T05:33:49.050Z,76.68
2022-12-22T05:36:17.817Z,77.53
2022-12-22T05:38:46.238Z,77.44
2022-12-22T05:41:14.157Z,76.75
2022-12-22T05:43:42.099Z,76.62
2022-12-22T05:46:12.592Z,78.08
2022-12-22T05:48:40.797Z,79.92
2022-12-22T05:51:10.458Z,79.98
2022-12-22T05:53:39.471Z,78.56
2022-12-22T05:56:09.318Z,78.05
2022-12-22T05:58:39.703Z,77.85
2022-12-22T06:01:08.558Z,79.26
2022-12-22T06:03:37.942Z,78.96
2022-12-22T06:06:06.579Z,78.75
2022-12-22T06:08:34.461Z,78.28
2022-12-22T06:11:02.216Z,79.36
2022-12-22T06:13:29.971Z,80.23
2022-12-22T06:15:57.858Z,79.60
2022-12-22T06:18:26.686Z,78.92
2022-12-22T06:20:56.104Z,78.98
2022-12-22T06:23:24.309Z,80.17
2022-12-22T06:25:57.050Z,80.10
2022-12-22T06:28:25.888Z,79.34
2022-12-22T06:30:54.178Z,79.68
2022-12-22T06:33:22.326Z,79.77
2022-12-22T06:35:57.573Z,80.09
2022-12-22T06:38:28.790Z,80.86
2022-12-22T06:40:57.338Z,81.10
2022-12-22T06:43:24.510Z,80.97
2022-12-22T06:45:52.860Z,80.73
2022-12-22T06:48:21.599Z,81.10
2022-12-22T06:50:49.463Z,82.19
2022-12-22T06:53:18.603Z,83.13
2022-12-22T06:55:48.095Z,82.97
2022-12-22T06:58:15.933Z,83.15
2022-12-22T07:00:45.404Z,82.91
2022-12-22T07:03:13.444Z,83.00
2022-12-22T07:05:41.709Z,80.45
2022-12-22T07:08:09.575Z,81.51
2022-12-22T07:10:55.643Z,80.55
2022-12-22T07:13:27.588Z,81.13
2022-12-22T07:16:00.767Z,81.36
2022-12-22T07:18:30.579Z,80.38
2022-12-22T07:20:58.438Z,80.89
2022-12-22T07:23:27.150Z,79.03
2022-12-22T07:25:55.291Z,78.06
2022-12-22T07:28:25.586Z,78.72
2022-12-22T07:30:54.667Z,77.99
2022-12-22T07:33:23.149Z,77.34
2022-12-22T07:36:03.982Z,77.30
2022-12-22T07:38:35.449Z,77.12
2022-12-22T07:41:27.972Z,77.94
2022-12-22T07:44:03.878Z,78.13
2022-12-22T07:46:35.515Z,79.25
2022-12-22T07:49:22.982Z,79.30
2022-12-22T07:51:51.609Z,79.29
2022-12-22T07:54:19.920Z,80.29
2022-12-22T07:56:48.199Z,81.15
2022-12-22T07:59:17.803Z,80.63
2022-12-22T08:01:46.099Z,80.44
2022-12-22T08:04:15.587Z,80.38
2022-12-22T08:06:43.496Z,80.85
2022-12-22T08:09:16.678Z,80.05
2022-12-22T08:11:44.692Z,80.64
2022-12-22T08:14:12.512Z,80.16
2022-12-22T08:16:41.679Z,79.70
2022-12-22T08:19:09.789Z,79.33
2022-12-22T08:21:37.560Z,79.01
2022-12-22T08:24:06.470Z,78.02
2022-12-22T08:26:39.730Z,77.22
2022-12-22T08:29:14.762Z,80.29
2022-12-22T08:31:45.163Z,78.19
2022-12-22T08:34:17.189Z,79.14
2022-12-22T08:36:50.068Z,77.66
2022-12-22T08:39:20.700Z,78.10
2022-12-22T08:41:51.368Z,80.18
2022-12-22T08:44:24.106Z,79.22
2022-12-22T08:46:56.337Z,79.63
2022-12-22T08:49:25.380Z,81.07
2022-12-22T08:51:54.423Z,81.05
2022-12-22T08:54:23.035Z,81.13
2022-12-22T08:56:51.229Z,81.61
2022-12-22T08:59:19.166Z,81.80
2022-12-22T09:01:50.493Z,79.59
2022-12-22T09:04:24.299Z,78.79
2022-12-22T09:06:53.473Z,80.34
2022-12-22T09:09:22.958Z,79.22
2022-12-22T09:11:51.060Z,78.78
2022-12-22T09:14:19.284Z,77.67
2022-12-22T09:16:47.126Z,78.13
2022-12-22T09:19:14.874Z,77.77
2022-12-22T09:21:44.958Z,76.91
2022-12-22T09:24:12.994Z,77.97
2022-12-22T09:26:41.205Z,77.67
2022-12-22T09:29:08.963Z,77.97
2022-12-22T09:31:37.067Z,76.71
2022-12-22T09:34:04.916Z,78.38
2022-12-22T09:36:33.771Z,78.56
2022-12-22T09:39:08.163Z,79.74
2022-12-22T09:41:42.796Z,79.11
2022-12-22T09:44:21.326Z,78.19
2022-12-22T09:46:50.675Z,79.63
2022-12-22T09:49:20.780Z,79.05
2022-12-22T09:51:53.571Z,80.08
2022-12-22T09:54:23.688Z,79.76
2022-12-22T09:56:51.579Z,79.37
2022-12-22T09:59:22.175Z,80.92
2022-12-22T10:02:14.544Z,81.07
2022-12-22T10:05:05.665Z,81.56
2022-12-22T10:07:36.606Z,81.29
2022-12-22T10:10:25.196Z,81.43
2022-12-22T10:12:56.398Z,81.49
2022-12-22T10:15:25.708Z,80.55
2022-12-22T10:17:55.388Z,78.87
2022-12-22T10:20:27.591Z,78.10
2022-12-22T10:22:59.591Z,76.92
2022-12-22T10:28:26.304Z,77.01
2022-12-22T10:31:15.435Z,77.52
2022-12-22T10:33:47.357Z,76.30
2022-12-22T10:36:22.610Z,76.26
2022-12-22T10:39:00.365Z,76.89
2022-12-22T10:41:33.707Z,75.69
2022-12-22T10:44:07.774Z,76.60
2022-12-22T10:46:41.335Z,77.64
2022-12-22T10:49:15.400Z,77.38
2022-12-22T10:51:47.570Z,77.20
2022-12-22T10:54:31.776Z,75.89
2022-12-22T10:57:21.772Z,75.49
2022-12-22T10:59:51.817Z,75.92
2022-12-22T11:02:31.300Z,76.50
2022-12-22T11:05:06.946Z,75.59
2022-12-22T11:07:37.565Z,76.14
2022-12-22T11:10:19.467Z,76.12
2022-12-22T11:13:11.370Z,76.26
2022-12-22T11:15:49.675Z,75.29
2022-12-22T11:18:47.812Z,74.66
2022-12-22T11:21:27.215Z,73.46
2022-12-22T11:24:10.051Z,72.96
2022-12-22T11:26:53.740Z,73.88
2022-12-22T11:30:01.632Z,74.02
2022-12-22T11:33:01.293Z,74.38
2022-12-22T11:35:52.895Z,73.15
2022-12-22T11:38:37.316Z,71.95
2022-12-22T11:41:20.771Z,71.47
2022-12-22T11:44:41.011Z,71.35
2022-12-22T11:47:25.887Z,68.36
2022-12-22T11:50:58.890Z,69.91
2022-12-22T11:54:10.339Z,71.31
2022-12-22T11:56:43.672Z,70.25
2022-12-22T11:59:48.205Z,70.33
2022-12-22T12:03:16.838Z,68.68
2022-12-22T12:06:10.321Z,67.07
2022-12-22T12:08:57.688Z,68.14
2022-12-22T12:11:39.484Z,68.35
2022-12-22T12:14:22.600Z,69.14
2022-12-22T12:16:59.807Z,68.80
2022-12-22T12:19:51.970Z,69.92
2022-12-22T12:22:33.362Z,68.64
2022-12-22T12:25:03.976Z,68.15
2022-12-22T12:27:54.153Z,68.42
2022-12-22T12:30:40.153Z,66.58
2022-12-22T12:33:19.325Z,67.74
2022-12-22T12:36:02.529Z,66.45
2022-12-22T12:41:42.371Z,68.04
2022-12-22T12:44:16.213Z,68.65
2022-12-22T12:46:59.941Z,67.40
2022-12-22T12:50:02.419Z,67.76
2022-12-22T12:53:07.767Z,67.27
2022-12-22T12:56:00.706Z,68.31
2022-12-22T12:58:58.096Z,67.84
2022-12-22T13:02:01.141Z,67.82
2022-12-22T13:05:29.338Z,65.61
2022-12-22T13:08:23.138Z,67.60
2022-12-22T13:11:52.134Z,67.55
2022-12-22T13:14:10.057Z,66.51
2022-12-22T13:16:40.551Z,64.00
2022-12-22T13:19:27.894Z,64.64
2022-12-22T13:21:58.070Z,64.55
2022-12-22T13:24:35.771Z,64.80
2022-12-22T13:27:11.317Z,62.27
2022-12-22T13:29:48.835Z,61.69
2022-12-22T13:32:29.462Z,63.26
2022-12-22T13:35:34.670Z,62.63
2022-12-22T13:38:03.924Z,61.33
2022-12-22T13:40:41.169Z,61.94
2022-12-22T13:43:16.340Z,62.37
2022-12-22T13:45:47.940Z,63.62
2022-12-22T13:48:30.607Z,62.72
2022-12-22T13:51:03.444Z,63.63
2022-12-22T13:56:35.266Z,67.14
2022-12-22T13:59:06.582Z,67.45
2022-12-22T14:01:36.373Z,67.09
2022-12-22T14:04:07.952Z,68.42
2022-12-22T14:06:40.722Z,69.72
2022-12-22T14:09:18.077Z,69.16
2022-12-22T14:11:52.425Z,69.70
2022-12-22T14:14:27.864Z,70.21
2022-12-22T14:17:00.443Z,70.29
2022-12-22T14:19:33.987Z,70.29
2022-12-22T14:22:09.807Z,70.16
2022-12-22T14:24:47.149Z,70.37
2022-12-22T14:27:30.323Z,71.39
2022-12-22T14:30:03.686Z,72.23
2022-12-22T14:32:39.754Z,72.36
2022-12-22T14:35:27.566Z,72.95
2022-12-22T14:38:17.263Z,73.04
2022-12-22T14:40:49.764Z,72.54
2022-12-22T14:43:31.458Z,73.66
2022-12-22T14:46:08.267Z,74.07
2022-12-22T14:48:40.765Z,74.15
2022-12-22T14:51:09.161Z,75.34
2022-12-22T14:53:52.747Z,75.41
2022-12-22T14:56:22.267Z,75.60
2022-12-22T14:58:51.579Z,75.87
2022-12-22T15:01:24.958Z,76.00
2022-12-22T15:04:08.358Z,75.60
2022-12-22T15:06:40.851Z,76.64
2022-12-22T15:10:12.422Z,76.93
2022-12-22T15:12:19.080Z,76.73
2022-12-22T15:17:25.394Z,76.93
2022-12-22T15:19:58.713Z,76.49
2022-12-22T15:22:26.463Z,76.45
2022-12-22T15:24:54.231Z,76.70
2022-12-22T15:27:22.044Z,76.10
2022-12-22T15:29:49.763Z,75.75
2022-12-22T15:32:17.578Z,75.75
2022-12-22T15:34:46.804Z,75.99
2022-12-22T15:37:14.511Z,75.92
2022-12-22T15:39:42.247Z,76.35
2022-12-22T15:42:10.035Z,75.93
2022-12-22T15:44:39.126Z,75.12
2022-12-22T15:47:11.189Z,75.92
2022-12-22T15:49:39.860Z,76.22
2022-12-22T15:52:14.612Z,74.78
2022-12-22T15:54:42.475Z,75.22
2022-12-22T15:57:15.004Z,74.43
2022-12-22T15:59:42.759Z,73.53
2022-12-22T16:02:13.015Z,73.23
2022-12-22T16:04:41.144Z,73.28
2022-12-22T16:07:13.068Z,72.32
2022-12-22T16:09:43.915Z,73.72
2022-12-22T16:12:15.553Z,72.92
2022-12-22T16:14:50.038Z,72.05
2022-12-22T16:17:21.244Z,72.38
2022-12-22T16:19:49.176Z,71.91
2022-12-22T16:22:27.570Z,70.98
2022-12-22T16:24:55.463Z,71.15
2022-12-22T16:27:23.675Z,70.89
2022-12-22T16:29:54.736Z,71.02
2022-12-22T16:32:27.008Z,71.42
2022-12-22T16:35:00.790Z,71.40
2022-12-22T16:37:30.256Z,71.40
2022-12-22T16:39:58.047Z,71.77
2022-12-22T16:45:22.481Z,71.21
2022-12-22T16:47:53.113Z,71.19
2022-12-22T16:50:27.533Z,72.84
2022-12-22T16:52:56.835Z,72.05
2022-12-22T16:55:24.888Z,71.61
2022-12-22T16:57:52.709Z,71.83
2022-12-22T17:00:24.058Z,72.40
2022-12-22T17:02:57.205Z,72.55
2022-12-22T17:05:31.528Z,73.00
2022-12-22T17:08:02.638Z,72.05
2022-12-22T17:10:30.422Z,72.06
2022-12-22T17:13:01.078Z,72.05
2022-12-22T17:15:29.536Z,71.89
2022-12-22T17:17:57.359Z,72.45
2022-12-22T17:20:29.270Z,73.77
2022-12-22T17:23:03.187Z,74.24
2022-12-22T17:25:32.640Z,73.74
2022-12-22T17:28:03.251Z,74.96
2022-12-22T17:30:31.127Z,75.04
2022-12-22T17:32:58.906Z,74.50
2022-12-22T17:35:28.928Z,74.59
2022-12-22T17:37:56.895Z,74.43
2022-12-22T17:40:30.506Z,74.28
2022-12-22T17:42:59.227Z,74.15
2022-12-22T17:45:27.663Z,74.31
2022-12-22T17:47:55.566Z,74.34
2022-12-22T17:50:24.258Z,74.66
2022-12-22T17:52:52.088Z,75.86
2022-12-22T17:56:05.183Z,76.00
2022-12-22T17:58:20.793Z,77.54
2022-12-22T18:00:48.566Z,77.14
2022-12-22T18:03:16.982Z,77.73
2022-12-22T18:05:49.370Z,77.75
2022-12-22T18:08:22.249Z,77.86
2022-12-22T18:10:50.804Z,77.94
2022-12-22T18:13:24.203Z,79.64
2022-12-22T18:15:53.056Z,78.19
2022-12-22T18:18:21.847Z,78.12
2022-12-22T18:21:07.537Z,79.34
2022-12-22T18:23:49.984Z,79.65
2022-12-22T18:26:23.002Z,80.04
2022-12-22T18:28:53.160Z,79.91
2022-12-22T18:31:22.702Z,79.03
2022-12-22T18:33:51.331Z,80.22
2022-12-22T18:36:21.868Z,79.95
2022-12-22T18:38:51.034Z,80.41
2022-12-22T18:41:24.035Z,79.72
2022-12-22T18:43:53.856Z,80.17
2022-12-22T18:46:21.883Z,80.98
2022-12-22T18:48:50.196Z,80.72
2022-12-22T18:51:21.554Z,81.14
2022-12-22T18:53:51.357Z,81.11
2022-12-22T18:56:19.715Z,80.91
2022-12-22T18:58:47.636Z,80.79
2022-12-22T19:01:25.642Z,81.07
2022-12-22T19:03:57.322Z,82.44
2022-12-22T19:06:25.715Z,81.86
2022-12-22T19:08:53.819Z,81.23
2022-12-22T19:11:28.172Z,81.75
2022-12-22T19:13:56.708Z,82.98
2022-12-22T19:16:28.096Z,82.40
2022-12-22T19:18:57.120Z,82.86
2022-12-22T19:21:24.968Z,82.54
2022-12-22T19:23:52.884Z,82.59
2022-12-22T19:26:24.262Z,83.30
2022-12-22T19:28:56.716Z,82.43
2022-12-22T19:31:30.126Z,82.54
2022-12-22T19:34:01.101Z,82.69
2022-12-22T19:36:31.847Z,83.27
2022-12-22T19:39:05.156Z,83.69
2022-12-22T19:41:43.314Z,84.04
2022-12-22T19:44:24.960Z,83.09
2022-12-22T19:46:56.924Z,83.83
2022-12-22T19:49:27.931Z,84.66
2022-12-22T19:51:56.869Z,85.13
2022-12-22T19:54:27.923Z,83.89
2022-12-22T19:56:57.311Z,82.86
2022-12-22T19:59:38.641Z,82.84
2022-12-22T20:02:28.009Z,83.25
2022-12-22T20:04:57.447Z,83.58
2022-12-22T20:07:28.906Z,84.17
2022-12-22T20:09:56.845Z,84.63
2022-12-22T20:12:34.326Z,83.80
2022-12-22T20:15:06.822Z,83.77
2022-12-22T20:17:36.035Z,83.82
2022-12-22T20:20:03.910Z,83.35
2022-12-22T20:22:31.892Z,82.85
2022-12-22T20:25:00.969Z,82.19
2022-12-22T20:27:35.677Z,82.66
2022-12-22T20:30:03.728Z,81.98
2022-12-22T20:32:31.651Z,83.25
2022-12-22T20:35:00.965Z,83.31
2022-12-22T20:37:30.965Z,83.23
2022-12-22T20:39:58.938Z,81.81
2022-12-22T20:42:27.051Z,81.87
2022-12-22T20:45:02.159Z,82.12
2022-12-22T20:47:33.901Z,80.47
2022-12-22T20:50:03.506Z,80.38
2022-12-22T20:52:31.454Z,81.55
2022-12-22T20:55:03.926Z,81.95
2022-12-22T20:57:34.292Z,80.92
2022-12-22T21:00:02.054Z,80.55
2022-12-22T21:02:30.090Z,80.68
2022-12-22T21:04:58.091Z,80.66
2022-12-22T21:07:27.347Z,81.06
2022-12-22T21:09:55.328Z,81.01
2022-12-22T21:12:23.301Z,80.53
2022-12-22T21:14:51.861Z,80.93
2022-12-22T21:17:21.667Z,81.67
2022-12-22T21:19:49.709Z,81.93
2022-12-22T21:22:18.437Z,81.49
2022-12-22T21:24:47.611Z,81.14
2022-12-22T21:27:21.930Z,82.14
2022-12-22T21:29:50.001Z,81.78
2022-12-22T21:32:17.817Z,82.31
2022-12-22T21:34:46.702Z,83.04
2022-12-22T21:37:19.798Z,83.79
2022-12-22T21:39:49.562Z,83.99
2022-12-22T21:42:19.699Z,83.98
2022-12-22T21:44:47.828Z,85.44
2022-12-22T21:47:21.057Z,85.59
2022-12-22T21:49:49.137Z,85.74
2022-12-22T21:52:16.905Z,85.98
2022-12-22T21:54:44.808Z,86.88
2022-12-22T21:57:16.739Z,86.61
2022-12-22T21:59:55.077Z,86.94
2022-12-22T22:02:23.126Z,86.29
2022-12-22T22:04:54.855Z,86.44
2022-12-22T22:07:23.404Z,87.00
2022-12-22T22:09:51.517Z,85.79
2022-12-22T22:12:36.971Z,86.53
2022-12-22T22:15:06.580Z,85.67
2022-12-22T22:17:34.522Z,84.82
2022-12-22T22:20:02.330Z,84.73
2022-12-22T22:22:30.321Z,84.37
2022-12-22T22:24:58.499Z,84.32
2022-12-22T22:27:27.855Z,84.53
2022-12-22T22:29:55.670Z,84.15
2022-12-22T22:32:23.746Z,84.52
2022-12-22T22:34:53.190Z,84.65
2022-12-22T22:37:21.137Z,84.78
2022-12-22T22:39:49.265Z,84.55
2022-12-22T22:42:17.780Z,84.75
2022-12-22T22:44:46.962Z,84.45
2022-12-22T22:47:15.039Z,85.12
2022-12-22T22:49:42.817Z,85.71
2022-12-22T22:52:11.951Z,86.52
2022-12-22T22:54:39.840Z,86.36
2022-12-22T22:57:08.429Z,85.26
2022-12-22T22:59:36.464Z,85.25
2022-12-22T23:02:06.229Z,85.09
2022-12-22T23:04:34.594Z,85.11
2022-12-22T23:07:02.516Z,84.63
2022-12-22T23:09:30.348Z,84.01
2022-12-22T23:11:58.383Z,84.23
2022-12-22T23:14:26.924Z,85.10
2022-12-22T23:16:54.771Z,84.56
2022-12-22T23:19:25.424Z,84.28
2022-12-22T23:21:53.352Z,83.86
2022-12-22T23:24:21.218Z,83.50
2022-12-22T23:26:49.303Z,84.25
2022-12-22T23:29:17.273Z,83.74
2022-12-22T23:31:45.337Z,84.02
2022-12-22T23:34:13.734Z,83.52
2022-12-22T23:36:42.957Z,83.49
2022-12-22T23:39:12.012Z,83.22
2022-12-22T23:41:39.850Z,83.35
2022-12-22T23:44:07.859Z,83.38
2022-12-22T23:46:35.981Z,83.27
2022-12-22T23:49:03.902Z,83.67
2022-12-22T23:51:31.820Z,84.05
2022-12-22T23:54:02.350Z,83.58
2022-12-22T23:56:31.144Z,83.57
2022-12-22T23:58:59.697Z,83.73
